createdAt,value
2022-12-03T00:00:34.996Z,3.66
2022-12-03T00:03:02.927Z,3.96
2022-12-03T00:05:34.759Z,3.90
2022-12-03T00:08:04.499Z,3.83
2022-12-03T00:10:32.440Z,3.94
2022-12-03T00:13:00.549Z,3.88
2022-12-03T00:15:28.542Z,3.86
2022-12-03T00:17:56.388Z,3.69
2022-12-03T00:20:25.702Z,3.78
2022-12-03T00:22:54.862Z,3.81
2022-12-03T00:25:25.017Z,3.92
2022-12-03T00:27:52.899Z,3.86
2022-12-03T00:30:20.742Z,4.01
2022-12-03T00:32:48.510Z,4.15
2022-12-03T00:35:16.790Z,4.42
2022-12-03T00:37:44.566Z,4.53
2022-12-03T00:40:14.387Z,4.58
2022-12-03T00:42:42.355Z,4.51
2022-12-03T00:45:11.086Z,4.51
2022-12-03T00:47:38.832Z,4.50
2022-12-03T00:50:08.313Z,4.48
2022-12-03T00:52:36.179Z,4.34
2022-12-03T00:55:04.244Z,4.00
2022-12-03T00:57:33.456Z,3.85
2022-12-03T01:00:01.313Z,3.72
2022-12-03T01:02:31.439Z,3.75
2022-12-03T01:04:59.425Z,3.91
2022-12-03T01:07:27.400Z,3.87
2022-12-03T01:09:57.474Z,3.89
2022-12-03T01:12:25.320Z,3.89
2022-12-03T01:14:54.690Z,3.82
2022-12-03T01:17:22.840Z,3.65
2022-12-03T01:19:52.511Z,3.83
2022-12-03T01:22:20.262Z,3.94
2022-12-03T01:24:48.039Z,4.02
2022-12-03T01:27:15.814Z,3.98
2022-12-03T01:29:43.696Z,3.84
2022-12-03T01:32:19.105Z,3.87
2022-12-03T01:34:47.547Z,3.84
2022-12-03T01:37:15.805Z,4.08
2022-12-03T01:39:44.377Z,3.85
2022-12-03T01:42:17.141Z,3.80
2022-12-03T01:44:45.914Z,3.94
2022-12-03T01:47:19.838Z,3.83
2022-12-03T01:49:51.905Z,3.67
2022-12-03T01:52:22.580Z,3.82
2022-12-03T01:54:53.811Z,4.06
2022-12-03T01:57:24.308Z,3.99
2022-12-03T01:59:53.805Z,4.06
2022-12-03T02:02:25.380Z,4.00
2022-12-03T02:04:54.433Z,4.14
2022-12-03T02:07:26.208Z,4.19
2022-12-03T02:09:55.770Z,4.22
2022-12-03T02:12:31.296Z,3.99
2022-12-03T02:15:00.354Z,4.02
2022-12-03T02:17:30.102Z,4.24
2022-12-03T02:19:59.487Z,4.09
2022-12-03T02:22:39.095Z,4.07
2022-12-03T02:25:12.651Z,4.16
2022-12-03T02:27:41.235Z,3.93
2022-12-03T02:30:10.933Z,4.14
2022-12-03T02:32:39.205Z,4.03
2022-12-03T02:35:07.648Z,4.07
2022-12-03T02:37:38.548Z,4.29
2022-12-03T02:40:14.057Z,4.49
2022-12-03T02:42:43.292Z,4.37
2022-12-03T02:45:15.075Z,4.52
2022-12-03T02:47:46.169Z,4.65
2022-12-03T02:50:18.050Z,4.76
2022-12-03T02:52:47.913Z,4.70
2022-12-03T02:55:18.833Z,4.57
2022-12-03T02:57:49.506Z,4.68
2022-12-03T03:00:18.666Z,4.70
2022-12-03T03:02:47.656Z,4.76
2022-12-03T03:05:17.005Z,4.75
2022-12-03T03:07:47.438Z,4.90
2022-12-03T03:10:24.156Z,4.87
2022-12-03T03:12:55.218Z,4.94
2022-12-03T03:15:24.464Z,4.79
2022-12-03T03:17:52.754Z,4.64
2022-12-03T03:20:20.756Z,4.68
2022-12-03T03:22:48.553Z,4.73
2022-12-03T03:25:22.483Z,4.41
2022-12-03T03:27:50.477Z,4.52
2022-12-03T03:30:18.581Z,4.55
2022-12-03T03:32:46.660Z,4.54
2022-12-03T03:35:18.039Z,4.52
2022-12-03T03:37:45.949Z,4.31
2022-12-03T03:40:14.086Z,4.31
2022-12-03T03:42:43.338Z,4.42
2022-12-03T03:45:11.653Z,4.43
2022-12-03T03:47:39.798Z,4.28
2022-12-03T03:50:10.200Z,3.80
2022-12-03T03:52:39.249Z,3.81
2022-12-03T03:55:11.866Z,3.98
2022-12-03T03:57:44.156Z,4.01
2022-12-03T04:00:13.122Z,3.90
2022-12-03T04:02:42.589Z,3.85
2022-12-03T04:05:16.424Z,4.16
2022-12-03T04:07:46.726Z,4.16
2022-12-03T04:10:33.092Z,3.96
2022-12-03T04:13:02.990Z,4.06
2022-12-03T04:15:30.952Z,4.18
2022-12-03T04:18:16.414Z,3.98
2022-12-03T04:20:46.583Z,4.09
2022-12-03T04:23:13.616Z,4.06
2022-12-03T04:25:58.003Z,4.16
2022-12-03T04:28:44.916Z,4.32
2022-12-03T04:31:29.944Z,4.29
2022-12-03T04:34:15.257Z,4.15
2022-12-03T04:36:42.986Z,4.00
2022-12-03T04:39:10.708Z,4.02
2022-12-03T04:41:38.924Z,4.12
2022-12-03T04:44:25.987Z,4.29
2022-12-03T04:46:53.869Z,4.36
2022-12-03T04:49:22.610Z,4.26
2022-12-03T04:51:50.408Z,4.21
2022-12-03T04:54:18.894Z,4.06
2022-12-03T04:56:46.934Z,4.19
2022-12-03T04:59:16.757Z,4.36
2022-12-03T05:01:44.911Z,4.41
2022-12-03T05:04:13.304Z,4.14
2022-12-03T05:06:41.327Z,3.96
2022-12-03T05:09:09.409Z,3.82
2022-12-03T05:11:37.275Z,3.77
2022-12-03T05:14:05.340Z,3.70
2022-12-03T05:16:34.653Z,3.48
2022-12-03T05:19:02.571Z,3.61
2022-12-03T05:21:29.614Z,3.58
2022-12-03T05:23:57.513Z,3.85
2022-12-03T05:26:25.380Z,4.05
2022-12-03T05:28:53.227Z,4.03
2022-12-03T05:31:21.073Z,3.96
2022-12-03T05:33:50.239Z,4.02
2022-12-03T05:36:18.208Z,4.10
2022-12-03T05:38:46.049Z,3.97
2022-12-03T05:41:31.312Z,3.85
2022-12-03T05:43:59.163Z,3.84
2022-12-03T05:46:27.013Z,3.91
2022-12-03T05:48:57.454Z,3.97
2022-12-03T05:51:25.159Z,4.12
2022-12-03T05:53:52.977Z,3.97
2022-12-03T05:56:20.877Z,4.38
2022-12-03T05:58:48.720Z,4.38
2022-12-03T06:01:16.649Z,4.42
2022-12-03T06:03:44.578Z,4.46
2022-12-03T06:06:16.250Z,4.55
2022-12-03T06:08:44.148Z,4.62
2022-12-03T06:11:11.980Z,4.75
2022-12-03T06:13:39.810Z,4.68
2022-12-03T06:16:07.848Z,4.49
2022-12-03T06:18:35.731Z,4.63
2022-12-03T06:21:04.927Z,4.50
2022-12-03T06:23:34.148Z,4.47
2022-12-03T06:26:01.922Z,4.64
2022-12-03T06:28:29.856Z,4.72
2022-12-03T06:31:00.592Z,4.86
2022-12-03T06:33:28.414Z,4.93
2022-12-03T06:35:56.352Z,4.40
2022-12-03T06:38:24.146Z,4.58
2022-12-03T06:40:53.269Z,4.45
2022-12-03T06:43:21.054Z,4.41
2022-12-03T06:45:48.859Z,4.52
2022-12-03T06:48:18.723Z,4.68
2022-12-03T06:50:46.694Z,4.81
2022-12-03T06:53:14.571Z,4.60
2022-12-03T06:55:42.473Z,4.80
2022-12-03T06:58:11.707Z,4.97
2022-12-03T07:00:39.759Z,5.03
2022-12-03T07:03:07.624Z,4.84
2022-12-03T07:05:35.459Z,4.27
2022-12-03T07:08:03.618Z,4.45
2022-12-03T07:10:31.498Z,4.61
2022-12-03T07:12:59.495Z,4.34
2022-12-03T07:15:28.837Z,4.51
2022-12-03T07:17:56.703Z,4.41
2022-12-03T07:20:24.439Z,4.36
2022-12-03T07:22:52.237Z,4.05
2022-12-03T07:25:23.477Z,4.22
2022-12-03T07:27:51.962Z,3.67
2022-12-03T07:30:20.050Z,4.03
2022-12-03T07:32:49.197Z,4.39
2022-12-03T07:35:17.328Z,4.57
2022-12-03T07:37:47.159Z,4.62
2022-12-03T07:40:17.349Z,4.78
2022-12-03T07:42:45.174Z,4.77
2022-12-03T07:45:13.063Z,4.39
2022-12-03T07:47:40.857Z,4.07
2022-12-03T07:50:11.467Z,4.16
2022-12-03T07:52:39.333Z,4.42
2022-12-03T07:55:08.255Z,4.33
2022-12-03T07:57:36.059Z,4.04
2022-12-03T08:00:07.744Z,4.21
2022-12-03T08:02:38.130Z,3.97
2022-12-03T08:05:07.076Z,4.10
2022-12-03T08:07:36.230Z,3.89
2022-12-03T08:10:05.161Z,4.11
2022-12-03T08:12:40.941Z,4.07
2022-12-03T08:15:14.454Z,3.82
2022-12-03T08:17:43.305Z,3.79
2022-12-03T08:20:15.815Z,3.79
2022-12-03T08:22:46.917Z,3.79
2022-12-03T08:25:19.094Z,4.04
2022-12-03T08:27:49.442Z,4.07
2022-12-03T08:30:18.953Z,4.21
2022-12-03T08:32:48.608Z,4.30
2022-12-03T08:35:23.698Z,4.32
2022-12-03T08:38:00.201Z,4.66
2022-12-03T08:40:35.626Z,4.87
2022-12-03T08:43:13.821Z,4.96
2022-12-03T08:45:43.164Z,4.82
2022-12-03T08:48:28.770Z,4.41
2022-12-03T08:50:58.981Z,4.45
2022-12-03T08:53:31.104Z,4.16
2022-12-03T08:56:00.658Z,4.40
2022-12-03T08:58:35.380Z,4.30
2022-12-03T09:01:18.875Z,4.38
2022-12-03T09:03:51.449Z,4.63
2022-12-03T09:06:22.725Z,4.53
2022-12-03T09:08:51.980Z,4.84
2022-12-03T09:11:23.012Z,4.68
2022-12-03T09:13:51.019Z,4.50
2022-12-03T09:16:21.163Z,4.88
2022-12-03T09:18:48.978Z,4.86
2022-12-03T09:21:16.734Z,5.07
2022-12-03T09:23:44.552Z,5.06
2022-12-03T09:26:13.701Z,4.71
2022-12-03T09:28:41.908Z,4.59
2022-12-03T09:31:09.780Z,4.67
2022-12-03T09:33:37.563Z,4.81
2022-12-03T09:36:06.543Z,4.39
2022-12-03T09:38:34.917Z,4.23
2022-12-03T09:41:02.900Z,4.57
2022-12-03T09:44:02.637Z,4.90
2022-12-03T09:46:22.674Z,4.59
2022-12-03T09:48:51.025Z,4.72
2022-12-03T09:51:20.732Z,4.35
2022-12-03T09:53:48.962Z,4.40
2022-12-03T09:56:21.555Z,4.68
2022-12-03T09:58:51.450Z,4.78
2022-12-03T10:01:22.464Z,4.27
2022-12-03T10:03:52.609Z,4.63
2022-12-03T10:06:24.689Z,4.81
2022-12-03T10:08:55.668Z,4.76
2022-12-03T10:11:27.211Z,4.88
2022-12-03T10:13:58.602Z,4.90
2022-12-03T10:16:28.876Z,4.99
2022-12-03T10:19:00.195Z,4.99
2022-12-03T10:21:32.159Z,5.16
2022-12-03T10:24:20.263Z,5.17
2022-12-03T10:26:49.902Z,4.96
2022-12-03T10:29:22.661Z,4.62
2022-12-03T10:31:56.878Z,4.78
2022-12-03T10:34:26.264Z,4.52
2022-12-03T10:37:11.882Z,4.81
2022-12-03T10:39:56.354Z,4.94
2022-12-03T10:42:25.970Z,5.20
2022-12-03T10:45:14.321Z,5.04
2022-12-03T10:47:42.430Z,4.98
2022-12-03T10:50:18.840Z,5.02
2022-12-03T10:52:48.002Z,5.17
2022-12-03T10:55:16.899Z,5.16
2022-12-03T10:57:47.034Z,4.68
2022-12-03T11:00:19.491Z,4.60
2022-12-03T11:02:53.301Z,4.81
2022-12-03T11:05:28.348Z,4.52
2022-12-03T11:07:57.232Z,4.54
2022-12-03T11:10:25.321Z,4.56
2022-12-03T11:13:43.346Z,4.82
2022-12-03T11:16:14.043Z,4.99
2022-12-03T11:19:02.452Z,4.96
2022-12-03T11:21:31.381Z,4.83
2022-12-03T11:24:18.288Z,4.49
2022-12-03T11:27:09.411Z,4.31
2022-12-03T11:29:55.314Z,4.04
2022-12-03T11:33:04.756Z,4.20
2022-12-03T11:35:59.015Z,4.26
2022-12-03T11:38:57.596Z,4.36
2022-12-03T11:41:31.763Z,4.43
2022-12-03T11:44:21.916Z,4.69
2022-12-03T11:46:50.678Z,4.76
2022-12-03T11:49:35.780Z,4.60
2022-12-03T11:52:22.460Z,4.73
2022-12-03T11:54:53.616Z,4.80
2022-12-03T11:57:31.624Z,4.88
2022-12-03T12:00:08.329Z,4.47
2022-12-03T12:02:42.778Z,4.60
2022-12-03T12:05:23.697Z,4.82
2022-12-03T12:07:53.628Z,4.64
2022-12-03T12:10:42.883Z,4.56
2022-12-03T12:13:48.323Z,4.15
2022-12-03T12:16:38.878Z,3.98
2022-12-03T12:19:29.459Z,4.49
2022-12-03T12:22:12.974Z,4.10
2022-12-03T12:24:48.246Z,4.02
2022-12-03T12:27:18.514Z,3.50
2022-12-03T12:29:55.079Z,3.26
2022-12-03T12:32:29.205Z,3.87
2022-12-03T12:35:01.250Z,3.92
2022-12-03T12:37:34.866Z,4.51
2022-12-03T12:40:07.329Z,4.71
2022-12-03T12:42:36.829Z,4.68
2022-12-03T12:45:15.365Z,4.68
2022-12-03T12:47:50.376Z,4.72
2022-12-03T12:50:19.802Z,4.72
2022-12-03T12:52:54.516Z,4.60
2022-12-03T12:55:24.209Z,4.59
2022-12-03T12:57:52.629Z,4.59
2022-12-03T13:00:22.946Z,4.29
2022-12-03T13:02:56.184Z,4.47
2022-12-03T13:05:27.639Z,4.10
2022-12-03T13:07:56.032Z,4.02
2022-12-03T13:10:42.538Z,4.21
2022-12-03T13:13:21.580Z,4.05
2022-12-03T13:16:00.773Z,4.39
2022-12-03T13:18:33.627Z,4.45
2022-12-03T13:21:12.452Z,4.16
2022-12-03T13:23:41.156Z,4.48
2022-12-03T13:26:34.107Z,4.52
2022-12-03T13:29:14.430Z,4.83
2022-12-03T13:31:47.933Z,4.78
2022-12-03T13:34:21.632Z,4.68
2022-12-03T13:36:57.478Z,4.42
2022-12-03T13:39:30.491Z,3.98
2022-12-03T13:42:17.651Z,4.36
2022-12-03T13:44:47.995Z,4.66
2022-12-03T13:47:19.537Z,4.47
2022-12-03T13:49:54.561Z,4.34
2022-12-03T13:52:24.870Z,4.09
2022-12-03T13:54:54.959Z,4.28
2022-12-03T13:57:23.351Z,4.03
2022-12-03T13:59:51.526Z,4.53
2022-12-03T14:02:19.732Z,4.74
2022-12-03T14:04:47.642Z,4.70
2022-12-03T14:07:17.462Z,4.43
2022-12-03T14:09:45.226Z,4.34
2022-12-03T14:12:30.691Z,4.38
2022-12-03T14:14:58.527Z,4.28
2022-12-03T14:17:26.335Z,4.00
2022-12-03T14:19:54.540Z,4.17
2022-12-03T14:22:25.369Z,4.16
2022-12-03T14:24:55.728Z,4.25
2022-12-03T14:27:25.281Z,4.22
2022-12-03T14:29:53.471Z,3.89
2022-12-03T14:32:21.619Z,4.34
2022-12-03T14:34:49.601Z,4.47
2022-12-03T14:37:19.954Z,4.03
2022-12-03T14:39:51.131Z,3.55
2022-12-03T14:42:19.044Z,3.84
2022-12-03T14:44:48.875Z,3.36
2022-12-03T14:47:18.512Z,3.54
2022-12-03T14:49:46.518Z,3.62
2022-12-03T14:52:14.396Z,3.61
2022-12-03T14:54:44.502Z,3.90
2022-12-03T14:57:15.285Z,3.32
2022-12-03T14:59:44.011Z,3.28
2022-12-03T15:02:13.209Z,3.63
2022-12-03T15:04:41.903Z,3.67
2022-12-03T15:07:12.018Z,3.85
2022-12-03T15:09:40.088Z,3.88
2022-12-03T15:12:08.595Z,3.93
2022-12-03T15:14:37.725Z,3.96
2022-12-03T15:17:05.657Z,3.81
2022-12-03T15:19:33.711Z,3.31
2022-12-03T15:22:01.552Z,3.18
2022-12-03T15:24:29.346Z,3.10
2022-12-03T15:26:57.168Z,3.62
2022-12-03T15:29:24.967Z,3.93
2022-12-03T15:31:54.568Z,4.03
2022-12-03T15:34:23.399Z,3.94
2022-12-03T15:36:51.575Z,4.03
2022-12-03T15:39:19.413Z,3.97
2022-12-03T15:41:47.893Z,3.27
2022-12-03T15:44:16.005Z,3.47
2022-12-03T15:46:43.863Z,3.47
2022-12-03T15:49:13.127Z,3.21
2022-12-03T15:51:40.836Z,3.34
2022-12-03T15:54:08.747Z,3.38
2022-12-03T15:56:38.801Z,3.27
2022-12-03T15:59:06.594Z,3.53
2022-12-03T16:01:34.460Z,3.24
2022-12-03T16:04:02.264Z,3.47
2022-12-03T16:06:31.487Z,3.65
2022-12-03T16:08:59.306Z,3.71
2022-12-03T16:11:27.140Z,3.78
2022-12-03T16:13:54.984Z,3.98
2022-12-03T16:16:22.848Z,3.79
2022-12-03T16:18:53.154Z,3.68
2022-12-03T16:21:26.740Z,3.90
2022-12-03T16:23:56.758Z,3.66
2022-12-03T16:26:24.637Z,3.91
2022-12-03T16:28:52.713Z,3.67
2022-12-03T16:31:20.696Z,3.50
2022-12-03T16:33:49.517Z,3.02
2022-12-03T16:36:17.739Z,3.46
2022-12-03T16:38:45.650Z,3.67
2022-12-03T16:41:14.790Z,3.59
2022-12-03T16:43:45.513Z,3.39
2022-12-03T16:46:26.002Z,3.88
2022-12-03T16:48:55.278Z,3.84
2022-12-03T16:51:23.444Z,3.77
2022-12-03T16:53:51.626Z,3.75
2022-12-03T16:56:21.277Z,3.35
2022-12-03T16:58:49.104Z,3.55
2022-12-03T17:01:16.880Z,3.15
2022-12-03T17:03:44.713Z,2.97
2022-12-03T17:06:12.467Z,3.49
2022-12-03T17:08:44.376Z,3.44
2022-12-03T17:11:15.289Z,3.16
2022-12-03T17:13:44.603Z,3.53
2022-12-03T17:16:12.954Z,3.69
2022-12-03T17:18:40.882Z,3.40
2022-12-03T17:21:08.652Z,3.20
2022-12-03T17:23:36.478Z,2.99
2022-12-03T17:26:04.345Z,2.86
2022-12-03T17:28:32.210Z,2.69
2022-12-03T17:31:01.776Z,2.61
2022-12-03T17:33:29.747Z,2.86
2022-12-03T17:35:59.635Z,3.06
2022-12-03T17:38:27.548Z,3.07
2022-12-03T17:40:55.359Z,3.26
2022-12-03T17:43:23.183Z,3.20
2022-12-03T17:45:50.982Z,3.46
2022-12-03T17:48:20.107Z,3.49
2022-12-03T17:50:50.168Z,3.73
2022-12-03T17:53:23.113Z,2.95
2022-12-03T17:55:53.304Z,2.90
2022-12-03T17:58:26.689Z,3.22
2022-12-03T18:01:00.270Z,3.15
2022-12-03T18:03:31.952Z,3.03
2022-12-03T18:05:59.924Z,3.32
2022-12-03T18:08:27.726Z,3.40
2022-12-03T18:10:55.497Z,2.76
2022-12-03T18:13:23.301Z,3.16
2022-12-03T18:15:51.081Z,3.21
2022-12-03T18:18:18.977Z,3.28
2022-12-03T18:20:48.222Z,3.50
2022-12-03T18:23:16.129Z,3.51
2022-12-03T18:25:43.991Z,3.26
2022-12-03T18:28:13.893Z,3.28
2022-12-03T18:30:42.206Z,3.51
2022-12-03T18:33:12.047Z,3.74
2022-12-03T18:35:40.103Z,3.79
2022-12-03T18:38:11.904Z,3.73
2022-12-03T18:40:39.858Z,3.55
2022-12-03T18:43:13.112Z,3.07
2022-12-03T18:45:46.074Z,3.03
2022-12-03T18:48:16.240Z,3.56
2022-12-03T18:50:44.687Z,3.45
2022-12-03T18:53:15.124Z,3.07
2022-12-03T18:55:44.214Z,3.27
2022-12-03T18:58:11.995Z,3.68
2022-12-03T19:00:40.557Z,3.21
2022-12-03T19:03:08.513Z,3.73
2022-12-03T19:05:36.825Z,3.62
2022-12-03T19:08:12.384Z,3.22
2022-12-03T19:10:42.194Z,3.54
2022-12-03T19:13:09.975Z,3.67
2022-12-03T19:15:38.387Z,3.89
2022-12-03T19:18:07.411Z,3.16
2022-12-03T19:20:35.594Z,2.99
2022-12-03T19:23:03.376Z,2.83
2022-12-03T19:25:31.227Z,3.24
2022-12-03T19:28:00.336Z,3.45
2022-12-03T19:30:28.233Z,3.30
2022-12-03T19:32:56.079Z,3.38
2022-12-03T19:35:23.958Z,3.32
2022-12-03T19:37:51.883Z,3.20
2022-12-03T19:40:19.797Z,3.39
2022-12-03T19:42:47.596Z,3.25
2022-12-03T19:45:16.851Z,2.93
2022-12-03T19:47:44.622Z,3.06
2022-12-03T19:50:19.289Z,3.39
2022-12-03T19:52:50.319Z,3.55
2022-12-03T19:55:19.695Z,3.55
2022-12-03T19:57:47.510Z,3.59
2022-12-03T20:00:18.705Z,3.58
2022-12-03T20:02:49.432Z,3.18
2022-12-03T20:05:17.362Z,3.00
2022-12-03T20:07:45.244Z,3.04
2022-12-03T20:10:13.084Z,3.48
2022-12-03T20:12:40.835Z,3.41
2022-12-03T20:15:09.231Z,3.48
2022-12-03T20:17:40.471Z,3.53
2022-12-03T20:20:09.739Z,3.76
2022-12-03T20:22:37.587Z,3.69
2022-12-03T20:25:06.110Z,2.97
2022-12-03T20:27:33.997Z,3.18
2022-12-03T20:30:01.834Z,3.43
2022-12-03T20:32:29.572Z,3.12
2022-12-03T20:34:59.542Z,3.07
2022-12-03T20:37:29.703Z,3.29
2022-12-03T20:39:57.762Z,3.10
2022-12-03T20:42:25.711Z,3.29
2022-12-03T20:44:53.809Z,3.25
2022-12-03T20:47:21.624Z,3.05
2022-12-03T20:49:49.501Z,3.11
2022-12-03T20:52:18.689Z,3.23
2022-12-03T20:54:46.741Z,2.51
2022-12-03T20:57:14.564Z,2.79
2022-12-03T20:59:42.335Z,3.01
2022-12-03T21:02:10.859Z,2.94
2022-12-03T21:04:41.071Z,2.79
2022-12-03T21:07:08.917Z,2.86
2022-12-03T21:09:38.202Z,2.88
2022-12-03T21:12:06.099Z,3.03
2022-12-03T21:14:33.951Z,3.13
2022-12-03T21:17:09.746Z,2.64
2022-12-03T21:19:40.434Z,2.64
2022-12-03T21:22:08.408Z,3.03
2022-12-03T21:24:36.381Z,3.11
2022-12-03T21:27:05.594Z,3.27
2022-12-03T21:29:33.360Z,3.04
2022-12-03T21:32:01.195Z,2.47
2022-12-03T21:34:34.366Z,2.73
2022-12-03T21:37:04.453Z,2.74
2022-12-03T21:39:36.681Z,2.75
2022-12-03T21:42:33.860Z,2.73
2022-12-03T21:44:53.830Z,2.81
2022-12-03T21:47:21.715Z,2.78
2022-12-03T21:49:49.545Z,2.59
2022-12-03T21:52:17.427Z,2.82
2022-12-03T21:54:45.454Z,2.92
2022-12-03T21:57:14.591Z,3.08
2022-12-03T21:59:42.384Z,2.73
2022-12-03T22:02:12.529Z,2.78
2022-12-03T22:04:40.889Z,3.02
2022-12-03T22:07:08.662Z,3.12
2022-12-03T22:09:36.601Z,3.04
2022-12-03T22:12:04.771Z,2.63
2022-12-03T22:14:36.104Z,2.72
2022-12-03T22:17:04.120Z,3.08
2022-12-03T22:19:32.091Z,2.95
2022-12-03T22:21:59.902Z,2.89
2022-12-03T22:24:27.783Z,2.87
2022-12-03T22:26:55.538Z,2.71
2022-12-03T22:29:23.443Z,2.58
2022-12-03T22:31:52.721Z,2.54
2022-12-03T22:34:20.627Z,2.74
2022-12-03T22:36:48.555Z,2.73
2022-12-03T22:39:16.341Z,2.72
2022-12-03T22:41:44.220Z,2.69
2022-12-03T22:44:12.136Z,2.82
2022-12-03T22:46:40.173Z,2.73
2022-12-03T22:49:09.377Z,3.03
2022-12-03T22:51:37.266Z,3.08
2022-12-03T22:54:05.536Z,3.01
2022-12-03T22:56:33.497Z,3.34
2022-12-03T22:59:01.236Z,3.14
2022-12-03T23:01:31.115Z,3.20
2022-12-03T23:03:59.214Z,3.18
2022-12-03T23:06:31.549Z,3.28
2022-12-03T23:08:59.989Z,2.59
2022-12-03T23:11:30.156Z,3.05
2022-12-03T23:13:58.925Z,2.59
2022-12-03T23:16:29.230Z,2.73
2022-12-03T23:18:59.619Z,2.95
2022-12-03T23:21:30.691Z,2.92
2022-12-03T23:24:00.998Z,2.83
2022-12-03T23:26:29.465Z,2.88
2022-12-03T23:28:57.517Z,2.50
2022-12-03T23:31:28.267Z,2.72
2022-12-03T23:33:57.221Z,3.01
2022-12-03T23:36:27.631Z,2.54
2022-12-03T23:38:55.675Z,2.90
2022-12-03T23:41:25.598Z,3.10
2022-12-03T23:43:54.055Z,3.23
2022-12-03T23:46:23.908Z,3.41
2022-12-03T23:48:52.220Z,3.15
2022-12-03T23:51:22.146Z,3.21
2022-12-03T23:53:53.866Z,2.94
2022-12-03T23:56:25.122Z,3.04
2022-12-03T23:58:53.108Z,2.76
